createdAt,value
2018-07-13T00:00:12.755Z,98074.73
2018-07-13T00:02:42.043Z,98069.88
2018-07-13T00:05:11.282Z,98069.08
2018-07-13T00:07:40.487Z,98070.41
2018-07-13T00:10:09.717Z,98070.94
2018-07-13T00:12:38.921Z,98065.87
2018-07-13T00:15:11.141Z,98072.27
2018-07-13T00:17:40.374Z,98072.27
2018-07-13T00:20:09.624Z,98068.78
2018-07-13T00:22:38.845Z,98073.03
2018-07-13T00:25:08.095Z,98067.14
2018-07-13T00:27:37.303Z,98073.31
2018-07-13T00:30:06.504Z,98072.47
2018-07-13T00:32:35.673Z,98074.62
2018-07-13T00:35:04.881Z,98071.67
2018-07-13T00:37:34.100Z,98073.28
2018-07-13T00:40:03.349Z,98077.53
2018-07-13T00:42:32.354Z,98076.19
2018-07-13T00:45:01.600Z,98074.91
2018-07-13T00:47:30.815Z,98072.98
2018-07-13T00:50:00.127Z,98079.14
2018-07-13T00:52:29.442Z,98068.44
2018-07-13T00:54:58.705Z,98071.87
2018-07-13T00:57:27.977Z,98074.02
2018-07-13T00:59:57.278Z,98068.38
2018-07-13T01:02:26.457Z,98072.65
2018-07-13T01:04:55.645Z,98072.63
2018-07-13T01:07:24.824Z,98078.97
2018-07-13T01:09:54.003Z,98076.33
2018-07-13T01:12:23.194Z,98074.98
2018-07-13T01:14:52.442Z,98078.22
2018-07-13T01:17:24.147Z,98081.68
2018-07-13T01:19:53.350Z,98083.02
2018-07-13T01:22:22.536Z,98081.98
2018-07-13T01:24:51.746Z,98089.27
2018-07-13T01:27:20.947Z,98088.41
2018-07-13T01:29:50.175Z,98094.84
2018-07-13T01:32:19.372Z,98091.92
2018-07-13T01:34:48.579Z,98091.64
2018-07-13T01:37:17.775Z,98091.14
2018-07-13T01:39:46.966Z,98092.42
2018-07-13T01:42:16.188Z,98092.14
2018-07-13T01:44:45.378Z,98088.65
2018-07-13T01:47:14.552Z,98098.77
2018-07-13T01:49:43.747Z,98092.06
2018-07-13T01:52:12.959Z,98095.27
2018-07-13T01:54:42.131Z,98088.58
2018-07-13T01:57:11.374Z,98088.86
2018-07-13T01:59:40.567Z,98083.75
2018-07-13T02:02:09.783Z,98090.73
2018-07-13T02:04:38.954Z,98084.28
2018-07-13T02:07:08.165Z,98095.03
2018-07-13T02:09:37.337Z,98091.02
2018-07-13T02:12:06.566Z,98090.91
2018-07-13T02:14:35.776Z,98086.61
2018-07-13T02:17:05.080Z,98085.02
2018-07-13T02:19:34.286Z,98093.05
2018-07-13T02:22:03.507Z,98088.47
2018-07-13T02:24:32.719Z,98086.33
2018-07-13T02:27:01.956Z,98097.02
2018-07-13T02:29:31.256Z,98092.48
2018-07-13T02:32:00.504Z,98091.59
2018-07-13T02:34:29.747Z,98092.67
2018-07-13T02:36:59.009Z,98094.49
2018-07-13T02:39:28.223Z,98090.77
2018-07-13T02:41:57.491Z,98098.52
2018-07-13T02:44:26.698Z,98096.31
2018-07-13T02:46:55.962Z,98088.77
2018-07-13T02:49:25.185Z,98095.50
2018-07-13T02:51:54.404Z,98105.81
2018-07-13T02:54:23.684Z,98111.20
2018-07-13T02:56:52.939Z,98113.60
2018-07-13T02:59:22.159Z,98108.23
2018-07-13T03:01:51.398Z,98118.36
2018-07-13T03:04:20.637Z,98115.68
2018-07-13T03:06:49.882Z,98124.28
2018-07-13T03:09:19.136Z,98117.84
2018-07-13T03:11:48.365Z,98117.84
2018-07-13T03:14:17.646Z,98120.58
2018-07-13T03:16:46.850Z,98121.09
2018-07-13T03:19:16.055Z,98114.06
2018-07-13T03:21:45.279Z,98117.83
2018-07-13T03:24:14.519Z,98120.50
2018-07-13T03:26:43.705Z,98122.08
2018-07-13T03:29:12.942Z,98121.28
2018-07-13T03:31:42.155Z,98118.35
2018-07-13T03:34:11.396Z,98121.74
2018-07-13T03:36:40.353Z,98120.97
2018-07-13T03:39:09.571Z,98122.84
2018-07-13T03:41:38.779Z,98120.22
2018-07-13T03:44:08.148Z,98127.20
2018-07-13T03:46:37.376Z,98123.72
2018-07-13T03:49:07.356Z,98121.60
2018-07-13T03:51:36.583Z,98117.27
2018-07-13T03:54:06.298Z,98121.04
2018-07-13T03:56:35.523Z,98126.14
2018-07-13T03:59:04.767Z,98122.38
2018-07-13T04:01:34.018Z,98117.31
2018-07-13T04:04:03.642Z,98122.15
2018-07-13T04:06:33.010Z,98127.78
2018-07-13T04:09:02.183Z,98132.84
2018-07-13T04:11:31.389Z,98128.58
2018-07-13T04:14:00.635Z,98131.08
2018-07-13T04:16:29.876Z,98136.89
2018-07-13T04:18:59.118Z,98138.47
2018-07-13T04:21:28.365Z,98141.15
2018-07-13T04:23:57.407Z,98136.91
2018-07-13T04:26:26.662Z,98135.85
2018-07-13T04:28:55.703Z,98135.67
2018-07-13T04:31:24.912Z,98138.15
2018-07-13T04:33:54.157Z,98131.75
2018-07-13T04:36:23.375Z,98131.60
2018-07-13T04:38:52.624Z,98133.27
2018-07-13T04:41:21.842Z,98126.86
2018-07-13T04:43:51.122Z,98129.05
2018-07-13T04:46:20.396Z,98131.20
2018-07-13T04:48:49.595Z,98129.89
2018-07-13T04:51:18.838Z,98133.98
2018-07-13T04:53:48.140Z,98131.67
2018-07-13T04:56:17.416Z,98131.02
2018-07-13T04:58:46.687Z,98128.38
2018-07-13T05:01:16.001Z,98137.25
2018-07-13T05:03:45.250Z,98139.45
2018-07-13T05:06:14.517Z,98138.06
2018-07-13T05:08:43.779Z,98143.59
2018-07-13T05:11:13.064Z,98144.53
2018-07-13T05:13:42.286Z,98140.30
2018-07-13T05:16:11.586Z,98144.67
2018-07-13T05:18:40.799Z,98143.94
2018-07-13T05:21:10.137Z,98149.76
2018-07-13T05:23:39.382Z,98151.48
2018-07-13T05:26:08.883Z,98150.61
2018-07-13T05:28:38.147Z,98151.52
2018-07-13T05:31:07.436Z,98152.19
2018-07-13T05:33:36.697Z,98149.62
2018-07-13T05:36:06.018Z,98148.47
2018-07-13T05:38:35.272Z,98147.82
2018-07-13T05:41:04.522Z,98152.19
2018-07-13T05:43:33.846Z,98153.90
2018-07-13T05:46:03.174Z,98155.34
2018-07-13T05:48:32.635Z,98159.28
2018-07-13T05:51:01.890Z,98165.41
2018-07-13T05:53:31.594Z,98159.34
2018-07-13T05:56:00.967Z,98162.50
2018-07-13T05:58:30.209Z,98163.46
2018-07-13T06:00:59.631Z,98164.91
2018-07-13T06:03:28.923Z,98160.05
2018-07-13T06:05:58.320Z,98161.86
2018-07-13T06:08:28.756Z,98160.18
2018-07-13T06:10:58.387Z,98163.55
2018-07-13T06:13:27.855Z,98163.97
2018-07-13T06:15:57.369Z,98168.22
2018-07-13T06:18:26.761Z,98175.19
2018-07-13T06:20:56.046Z,98172.44
2018-07-13T06:23:25.363Z,98167.92
2018-07-13T06:25:54.681Z,98168.29
2018-07-13T06:28:24.113Z,98173.52
2018-07-13T06:30:53.422Z,98168.31
2018-07-13T06:33:22.912Z,98167.38
2018-07-13T06:35:51.925Z,98173.34
2018-07-13T06:38:21.410Z,98170.75
2018-07-13T06:40:51.697Z,98168.00
2018-07-13T06:43:21.193Z,98169.32
2018-07-13T06:45:50.520Z,98175.79
2018-07-13T06:48:19.821Z,98177.50
2018-07-13T06:50:49.233Z,98173.24
2018-07-13T06:53:18.524Z,98172.85
2018-07-13T06:55:47.793Z,98173.13
2018-07-13T06:58:34.063Z,98179.89
2018-07-13T07:01:06.384Z,98184.77
2018-07-13T07:04:39.876Z,98184.12
2018-07-13T07:07:14.419Z,98186.79
2018-07-13T07:09:48.880Z,98184.03
2018-07-13T07:12:33.323Z,98184.43
2018-07-13T07:15:02.678Z,98181.71
2018-07-13T07:17:32.026Z,98183.94
2018-07-13T07:20:01.480Z,98181.27
2018-07-13T07:22:30.917Z,98182.16
2018-07-13T07:25:00.213Z,98180.14
2018-07-13T07:27:29.491Z,98175.57
2018-07-13T07:29:58.474Z,98180.34
2018-07-13T07:32:27.775Z,98180.77
2018-07-13T07:34:57.092Z,98176.94
2018-07-13T07:37:26.480Z,98182.92
2018-07-13T07:39:55.806Z,98186.93
2018-07-13T07:42:25.144Z,98191.66
2018-07-13T07:44:54.468Z,98182.64
2018-07-13T07:47:23.829Z,98181.13
2018-07-13T07:49:53.323Z,98181.72
2018-07-13T07:52:22.583Z,98175.48
2018-07-13T07:54:51.987Z,98177.89
2018-07-13T07:57:21.390Z,98173.27
2018-07-13T07:59:50.793Z,98176.66
2018-07-13T08:02:20.115Z,98178.36
2018-07-13T08:04:50.513Z,98179.41
2018-07-13T08:07:19.943Z,98174.38
2018-07-13T08:09:49.130Z,98177.90
2018-07-13T08:12:18.390Z,98176.93
2018-07-13T08:14:47.750Z,98174.22
2018-07-13T08:17:16.808Z,98174.50
2018-07-13T08:19:45.903Z,98175.91
2018-07-13T08:22:24.577Z,98172.34
2018-07-13T08:24:57.391Z,98179.27
2018-07-13T08:27:32.985Z,98165.94
2018-07-13T08:30:02.600Z,98162.25
2018-07-13T08:32:31.969Z,98165.70
2018-07-13T08:35:01.314Z,98164.84
2018-07-13T08:37:30.706Z,98155.45
2018-07-13T08:40:00.032Z,98160.72
2018-07-13T08:42:29.437Z,98158.44
2018-07-13T08:44:58.937Z,98141.70
2018-07-13T08:47:28.443Z,98155.25
2018-07-13T08:49:57.810Z,98154.26
2018-07-13T08:52:27.164Z,98154.73
2018-07-13T08:54:56.829Z,98154.53
2018-07-13T08:57:26.210Z,98156.63
2018-07-13T08:59:55.682Z,98160.45
2018-07-13T09:02:24.875Z,98164.70
2018-07-13T09:04:54.200Z,98157.45
2018-07-13T09:07:23.464Z,98157.75
2018-07-13T09:09:52.848Z,98160.22
2018-07-13T09:12:22.142Z,98162.11
2018-07-13T09:14:51.482Z,98165.00
2018-07-13T09:17:20.843Z,98164.74
2018-07-13T09:19:50.210Z,98164.77
2018-07-13T09:22:19.494Z,98162.66
2018-07-13T09:24:48.796Z,98165.09
2018-07-13T09:27:18.222Z,98159.94
2018-07-13T09:29:47.552Z,98161.43
2018-07-13T09:32:16.973Z,98169.52
2018-07-13T09:34:46.361Z,98170.27
2018-07-13T09:37:15.515Z,98164.45
2018-07-13T09:39:44.814Z,98166.63
2018-07-13T09:42:14.065Z,98166.69
2018-07-13T09:44:43.352Z,98165.20
2018-07-13T09:47:12.635Z,98168.06
2018-07-13T09:49:41.925Z,98166.14
2018-07-13T09:52:11.237Z,98173.56
2018-07-13T09:54:40.446Z,98162.08
2018-07-13T09:57:09.741Z,98160.08
2018-07-13T09:59:38.983Z,98155.08
2018-07-13T10:02:08.327Z,98159.31
2018-07-13T10:04:37.615Z,98159.00
2018-07-13T10:07:07.530Z,98157.14
2018-07-13T10:09:36.988Z,98152.53
2018-07-13T10:12:06.341Z,98155.44
2018-07-13T10:14:35.611Z,98156.11
2018-07-13T10:17:05.122Z,98160.92
2018-07-13T10:19:34.421Z,98158.18
2018-07-13T10:22:03.853Z,98156.80
2018-07-13T10:24:34.856Z,98154.76
2018-07-13T10:27:04.200Z,98158.92
2018-07-13T10:29:40.880Z,98158.41
2018-07-13T10:32:10.234Z,98160.24
2018-07-13T10:34:39.571Z,98160.95
2018-07-13T10:37:09.122Z,98149.87
2018-07-13T10:39:38.511Z,98160.12
2018-07-13T10:42:07.918Z,98153.67
2018-07-13T10:44:37.205Z,98149.23
2018-07-13T10:47:06.726Z,98150.23
2018-07-13T10:49:36.074Z,98156.13
2018-07-13T10:52:05.532Z,98148.63
2018-07-13T10:54:34.874Z,98155.56
2018-07-13T10:57:04.251Z,98155.93
2018-07-13T10:59:33.582Z,98154.80
2018-07-13T11:02:02.810Z,98151.23
2018-07-13T11:04:31.870Z,98147.06
2018-07-13T11:07:02.244Z,98151.44
2018-07-13T11:09:31.591Z,98145.57
2018-07-13T11:12:00.930Z,98140.75
2018-07-13T11:14:30.271Z,98136.09
2018-07-13T11:16:59.799Z,98134.86
2018-07-13T11:19:29.256Z,98136.56
2018-07-13T11:21:58.668Z,98133.97
2018-07-13T11:24:27.788Z,98130.91
2018-07-13T11:26:56.891Z,98123.02
2018-07-13T11:29:26.232Z,98122.87
2018-07-13T11:31:55.871Z,98117.30
2018-07-13T11:34:25.266Z,98116.89
2018-07-13T11:36:54.582Z,98113.63
2018-07-13T11:39:23.915Z,98105.88
2018-07-13T11:41:53.187Z,98106.20
2018-07-13T11:44:22.494Z,98106.48
2018-07-13T11:46:51.818Z,98099.52
2018-07-13T11:49:21.113Z,98108.88
2018-07-13T11:51:50.567Z,98101.45
2018-07-13T11:54:19.931Z,98105.08
2018-07-13T11:56:49.215Z,98107.37
2018-07-13T11:59:18.528Z,98103.89
2018-07-13T12:01:48.404Z,98103.20
2018-07-13T12:04:18.136Z,98095.56
2018-07-13T12:06:47.413Z,98098.67
2018-07-13T12:09:17.066Z,98101.46
2018-07-13T12:11:46.292Z,98089.16
2018-07-13T12:14:15.469Z,98093.41
2018-07-13T12:16:45.009Z,98092.02
2018-07-13T12:19:14.245Z,98087.03
2018-07-13T12:21:43.671Z,98083.28
2018-07-13T12:24:12.940Z,98076.44
2018-07-13T12:26:42.278Z,98075.12
2018-07-13T12:29:11.602Z,98079.95
2018-07-13T12:31:40.943Z,98082.45
2018-07-13T12:34:10.398Z,98074.08
2018-07-13T12:36:39.677Z,98082.73
2018-07-13T12:39:09.064Z,98071.18
2018-07-13T12:41:38.310Z,98068.63
2018-07-13T12:44:07.703Z,98061.09
2018-07-13T12:46:37.028Z,98062.45
2018-07-13T12:49:06.291Z,98068.38
2018-07-13T12:51:35.549Z,98070.80
2018-07-13T12:54:04.986Z,98062.70
2018-07-13T12:56:34.252Z,98059.59
2018-07-13T12:59:03.559Z,98052.63
2018-07-13T13:01:32.882Z,98058.23
2018-07-13T13:04:02.199Z,98053.58
2018-07-13T13:06:31.591Z,98045.20
2018-07-13T13:09:00.914Z,98045.62
2018-07-13T13:11:30.307Z,98047.94
2018-07-13T13:13:59.582Z,98037.75
2018-07-13T13:16:28.912Z,98037.24
2018-07-13T13:18:58.368Z,98042.23
2018-07-13T13:21:27.610Z,98052.48
2018-07-13T13:23:56.875Z,98040.86
2018-07-13T13:26:25.819Z,98037.70
2018-07-13T13:28:55.119Z,98037.54
2018-07-13T13:31:24.366Z,98035.14
2018-07-13T13:33:53.718Z,98031.80
2018-07-13T13:36:23.006Z,98028.78
2018-07-13T13:38:52.291Z,98031.65
2018-07-13T13:41:21.606Z,98028.17
2018-07-13T13:43:50.894Z,98024.84
2018-07-13T13:46:20.210Z,98023.42
2018-07-13T13:48:49.525Z,98026.89
2018-07-13T13:51:18.808Z,98024.14
2018-07-13T13:53:48.064Z,98017.77
2018-07-13T13:56:17.664Z,98023.34
2018-07-13T13:58:46.744Z,98024.21
2018-07-13T14:01:16.110Z,98018.59
2018-07-13T14:03:45.520Z,98023.44
2018-07-13T14:06:14.932Z,98014.47
2018-07-13T14:08:44.401Z,98007.63
2018-07-13T14:11:13.762Z,98017.15
2018-07-13T14:13:43.166Z,98013.74
2018-07-13T14:16:12.543Z,98016.39
2018-07-13T14:18:42.017Z,98011.16
2018-07-13T14:21:11.380Z,98003.31
2018-07-13T14:23:40.772Z,98010.70
2018-07-13T14:26:10.060Z,98014.25
2018-07-13T14:28:39.110Z,98013.27
2018-07-13T14:31:08.504Z,98016.75
2018-07-13T14:33:37.884Z,98012.46
2018-07-13T14:36:07.158Z,98014.66
2018-07-13T14:38:36.606Z,98005.14
2018-07-13T14:41:06.029Z,98004.36
2018-07-13T14:43:35.388Z,98005.08
2018-07-13T14:46:04.779Z,98006.69
2018-07-13T14:48:34.473Z,98007.91
2018-07-13T14:51:03.807Z,97998.77
2018-07-13T14:53:33.448Z,97997.67
2018-07-13T14:56:02.813Z,97999.05
2018-07-13T14:58:32.185Z,97997.52
2018-07-13T15:01:01.617Z,97996.69
2018-07-13T15:03:30.657Z,98002.67
2018-07-13T15:06:00.132Z,97997.11
2018-07-13T15:08:29.325Z,97992.22
2018-07-13T15:10:58.697Z,97988.38
2018-07-13T15:13:28.021Z,97984.20
2018-07-13T15:15:57.374Z,97982.55
2018-07-13T15:18:26.691Z,97994.20
2018-07-13T15:20:56.078Z,97994.92
2018-07-13T15:23:25.483Z,97994.31
2018-07-13T15:25:54.861Z,97986.79
2018-07-13T15:28:24.287Z,97986.73
2018-07-13T15:30:53.636Z,97985.92
2018-07-13T15:33:22.904Z,97986.30
2018-07-13T15:35:52.243Z,97981.89
2018-07-13T15:38:21.571Z,97980.16
2018-07-13T15:40:50.982Z,97979.29
2018-07-13T15:43:20.332Z,97981.30
2018-07-13T15:45:49.605Z,97978.56
2018-07-13T15:48:19.071Z,97974.80
2018-07-13T15:50:48.907Z,97974.95
2018-07-13T15:53:18.303Z,97970.36
2018-07-13T15:55:52.934Z,97961.34
2018-07-13T15:58:22.308Z,97967.12
2018-07-13T16:00:51.654Z,97967.34
2018-07-13T16:03:21.168Z,97970.48
2018-07-13T16:05:50.608Z,97963.29
2018-07-13T16:08:20.223Z,97964.44
2018-07-13T16:10:49.634Z,97960.05
2018-07-13T16:13:18.851Z,97963.57
2018-07-13T16:15:48.159Z,97965.17
2018-07-13T16:18:17.464Z,97954.66
2018-07-13T16:20:46.851Z,97949.22
2018-07-13T16:23:16.300Z,97957.89
2018-07-13T16:25:45.675Z,97951.63
2018-07-13T16:28:15.028Z,97951.63
2018-07-13T16:30:44.363Z,97948.97
2018-07-13T16:33:13.701Z,97941.34
2018-07-13T16:35:43.001Z,97938.28
2018-07-13T16:38:12.294Z,97940.73
2018-07-13T16:40:41.651Z,97940.80
2018-07-13T16:43:10.985Z,97947.06
2018-07-13T16:45:40.337Z,97942.84
2018-07-13T16:48:09.669Z,97938.70
2018-07-13T16:50:39.038Z,97942.27
2018-07-13T16:53:08.319Z,97941.98
2018-07-13T16:55:37.711Z,97942.09
2018-07-13T16:58:07.150Z,97936.05
2018-07-13T17:00:36.306Z,97935.13
2018-07-13T17:03:05.746Z,97933.52
2018-07-13T17:05:35.027Z,97929.61
2018-07-13T17:08:04.377Z,97935.76
2018-07-13T17:10:33.648Z,97935.53
2018-07-13T17:13:02.998Z,97931.64
2018-07-13T17:15:32.254Z,97931.11
2018-07-13T17:18:01.299Z,97928.44
2018-07-13T17:20:30.700Z,97929.10
2018-07-13T17:22:59.888Z,97921.41
2018-07-13T17:25:28.905Z,97918.94
2018-07-13T17:27:58.189Z,97917.57
2018-07-13T17:30:27.573Z,97918.14
2018-07-13T17:32:56.905Z,97926.30
2018-07-13T17:35:26.230Z,97923.17
2018-07-13T17:37:55.764Z,97927.37
2018-07-13T17:40:25.119Z,97926.28
2018-07-13T17:42:55.177Z,97925.09
2018-07-13T17:45:24.516Z,97931.16
2018-07-13T17:47:53.774Z,97920.78
2018-07-13T17:50:23.100Z,97924.93
2018-07-13T17:52:52.517Z,97927.25
2018-07-13T17:55:21.818Z,97928.87
2018-07-13T17:57:51.140Z,97925.06
2018-07-13T18:00:20.538Z,97925.64
2018-07-13T18:02:49.896Z,97930.25
2018-07-13T18:05:19.213Z,97927.86
2018-07-13T18:07:48.527Z,97928.88
2018-07-13T18:10:17.920Z,97928.33
2018-07-13T18:12:47.378Z,97929.78
2018-07-13T18:15:16.650Z,97935.28
2018-07-13T18:17:46.426Z,97932.45
2018-07-13T18:20:15.747Z,97933.89
2018-07-13T18:22:45.073Z,97942.30
2018-07-13T18:25:14.548Z,97937.91
2018-07-13T18:27:44.630Z,97940.04
2018-07-13T18:30:14.040Z,97939.24
2018-07-13T18:32:43.543Z,97941.44
2018-07-13T18:35:12.891Z,97936.18
2018-07-13T18:37:42.194Z,97939.28
2018-07-13T18:40:11.493Z,97936.13
2018-07-13T18:42:41.023Z,97933.39
2018-07-13T18:45:10.374Z,97931.80
2018-07-13T18:47:44.097Z,97930.49
2018-07-13T18:50:13.408Z,97940.56
2018-07-13T18:52:42.754Z,97940.89
2018-07-13T18:55:11.823Z,97946.99
2018-07-13T18:57:44.120Z,97947.88
2018-07-13T19:00:20.307Z,97946.34
2018-07-13T19:02:50.580Z,97957.96
2018-07-13T19:05:19.954Z,97964.16
2018-07-13T19:07:49.310Z,97957.68
2018-07-13T19:10:18.633Z,97955.67
2018-07-13T19:12:47.934Z,97955.50
2018-07-13T19:15:17.550Z,97951.09
2018-07-13T19:17:47.085Z,97954.30
2018-07-13T19:20:16.445Z,97955.05
2018-07-13T19:22:45.897Z,97956.58
2018-07-13T19:25:15.042Z,97959.80
2018-07-13T19:27:44.374Z,97978.44
2018-07-13T19:30:13.687Z,97965.70
2018-07-13T19:32:42.984Z,97977.28
2018-07-13T19:35:12.456Z,97971.17
2018-07-13T19:37:41.825Z,97971.95
2018-07-13T19:40:11.778Z,97976.76
2018-07-13T19:42:42.606Z,97985.61
2018-07-13T19:45:15.477Z,97984.84
2018-07-13T19:47:46.670Z,97987.80
2018-07-13T19:50:21.004Z,97990.98
2018-07-13T19:52:51.090Z,98006.36
2018-07-13T19:55:21.364Z,98000.38
2018-07-13T19:57:51.612Z,98006.22
2018-07-13T20:00:25.123Z,98011.28
2018-07-13T20:02:56.589Z,97993.48
2018-07-13T20:05:26.917Z,98015.27
2018-07-13T20:07:57.692Z,98019.38
2018-07-13T20:10:27.749Z,98016.37
2018-07-13T20:15:34.607Z,98019.68
2018-07-13T20:18:13.053Z,98021.68
2018-07-13T20:20:45.519Z,98018.77
2018-07-13T20:23:16.688Z,98022.60
2018-07-13T20:25:47.672Z,98040.22
2018-07-13T20:28:18.544Z,98035.05
2018-07-13T20:30:49.305Z,98031.31
2018-07-13T20:33:20.123Z,98032.30
2018-07-13T20:35:57.694Z,98031.13
2018-07-13T20:38:27.824Z,98041.81
2018-07-13T20:40:58.073Z,98025.77
2018-07-13T20:43:28.570Z,98037.64
2018-07-13T20:46:00.929Z,98032.50
2018-07-13T20:48:35.319Z,98046.29
2018-07-13T20:51:05.517Z,98028.45
2018-07-13T20:53:35.707Z,98044.24
2018-07-13T20:56:06.401Z,98031.81
2018-07-13T20:58:37.519Z,98030.92
2018-07-13T21:01:07.911Z,98048.41
2018-07-13T21:03:38.292Z,98039.59
2018-07-13T21:06:08.428Z,98050.52
2018-07-13T21:08:39.321Z,98048.78
2018-07-13T21:11:09.864Z,98062.28
2018-07-13T21:13:40.034Z,98042.75
2018-07-13T21:16:11.064Z,98052.66
2018-07-13T21:18:42.512Z,98047.95
2018-07-13T21:21:13.267Z,98056.68
2018-07-13T21:23:44.044Z,98037.38
2018-07-13T21:26:19.207Z,98055.75
2018-07-13T21:28:50.137Z,98051.56
2018-07-13T21:31:22.864Z,98055.05
2018-07-13T21:33:53.194Z,98056.31
2018-07-13T21:36:28.924Z,98051.45
2018-07-13T21:39:00.070Z,98064.70
2018-07-13T21:41:33.017Z,98063.91
2018-07-13T21:44:03.620Z,98063.16
2018-07-13T21:46:33.646Z,98066.23
2018-07-13T21:49:03.758Z,98062.98
2018-07-13T21:51:33.603Z,98066.55
2018-07-13T21:54:04.597Z,98059.43
2018-07-13T21:56:36.040Z,98064.83
2018-07-13T21:59:06.677Z,98073.34
2018-07-13T22:01:36.736Z,98071.61
2018-07-13T22:04:10.775Z,98065.74
2018-07-13T22:06:41.792Z,98060.02
2018-07-13T22:09:12.101Z,98063.91
2018-07-13T22:11:50.057Z,98072.73
2018-07-13T22:14:21.683Z,98065.85
2018-07-13T22:16:54.955Z,98072.45
2018-07-13T22:19:25.905Z,98058.83
2018-07-13T22:22:01.069Z,98060.11
2018-07-13T22:24:31.483Z,98066.52
2018-07-13T22:27:02.392Z,98074.28
2018-07-13T22:29:33.744Z,98061.00
2018-07-13T22:32:08.469Z,98068.41
2018-07-13T22:34:38.740Z,98075.47
2018-07-13T22:37:08.615Z,98070.89
2018-07-13T22:39:39.045Z,98059.68
2018-07-13T22:42:09.042Z,98063.45
2018-07-13T22:44:39.531Z,98070.68
2018-07-13T22:47:09.666Z,98062.34
2018-07-13T22:49:40.876Z,98066.81
2018-07-13T22:52:12.092Z,98067.47
2018-07-13T22:54:43.659Z,98069.90
2018-07-13T22:57:14.776Z,98053.72
2018-07-13T23:00:07.048Z,98066.98
2018-07-13T23:02:38.136Z,98064.05
2018-07-13T23:05:08.800Z,98063.27
2018-07-13T23:07:39.185Z,98054.38
2018-07-13T23:10:09.754Z,98056.35
2018-07-13T23:12:47.134Z,98053.73
2018-07-13T23:15:24.126Z,98057.29
2018-07-13T23:17:54.710Z,98057.08
2018-07-13T23:20:27.533Z,98054.88
2018-07-13T23:23:08.496Z,98044.84
2018-07-13T23:25:38.831Z,98064.37
2018-07-13T23:28:09.568Z,98050.87
2018-07-13T23:30:43.760Z,98056.55
2018-07-13T23:33:13.937Z,98065.54
2018-07-13T23:35:44.191Z,98065.41
2018-07-13T23:38:16.166Z,98077.53
2018-07-13T23:40:46.829Z,98064.73
2018-07-13T23:43:17.534Z,98053.26
2018-07-13T23:45:48.744Z,98064.30
2018-07-13T23:48:24.685Z,98039.38
2018-07-13T23:50:55.381Z,98051.50
2018-07-13T23:53:25.779Z,98052.05
2018-07-13T23:55:56.562Z,98067.65
2018-07-13T23:58:29.978Z,98059.26
